sensor_id;sensor_type;location;lat;lon;timestamp;pressure;altitude;pressure_sealevel;temperature;humidity
74913;BME280;63878;55.624;37.304;2022-10-18T00:01:14;99594.72;;;7.80;80.79
74913;BME280;63878;55.624;37.304;2022-10-18T00:03:39;99586.13;;;7.78;80.79
74913;BME280;63878;55.624;37.304;2022-10-18T00:06:06;99588.44;;;7.84;81.13
74913;BME280;63878;55.624;37.304;2022-10-18T00:08:32;99572.03;;;7.82;80.67
74913;BME280;63878;55.624;37.304;2022-10-18T00:10:57;99571.88;;;7.85;80.44
74913;BME280;63878;55.624;37.304;2022-10-18T00:13:23;99578.38;;;7.77;80.45
74913;BME280;63878;55.624;37.304;2022-10-18T00:15:54;99577.59;;;7.75;81.13
74913;BME280;63878;55.624;37.304;2022-10-18T00:18:20;99573.00;;;7.62;81.33
74913;BME280;63878;55.624;37.304;2022-10-18T00:20:56;99574.16;;;7.74;81.06
74913;BME280;63878;55.624;37.304;2022-10-18T00:23:22;99556.63;;;7.78;80.17
74913;BME280;63878;55.624;37.304;2022-10-18T00:25:48;99554.44;;;7.69;81.16
74913;BME280;63878;55.624;37.304;2022-10-18T00:28:13;99551.00;;;7.68;80.90
74913;BME280;63878;55.624;37.304;2022-10-18T00:30:39;99552.72;;;7.69;80.72
74913;BME280;63878;55.624;37.304;2022-10-18T00:33:05;99547.50;;;7.69;nan
74913;BME280;63878;55.624;37.304;2022-10-18T00:35:33;99552.00;;;7.65;80.81
74913;BME280;63878;55.624;37.304;2022-10-18T00:37:59;99548.75;;;7.60;80.99
74913;BME280;63878;55.624;37.304;2022-10-18T00:40:24;99547.09;;;7.59;81.14
74913;BME280;63878;55.624;37.304;2022-10-18T00:42:50;99539.88;;;7.64;80.96
74913;BME280;63878;55.624;37.304;2022-10-18T00:45:21;99537.41;;;7.61;81.20
74913;BME280;63878;55.624;37.304;2022-10-18T00:48:00;99539.81;;;7.66;80.53
74913;BME280;63878;55.624;37.304;2022-10-18T00:50:30;99539.88;;;7.64;81.01
74913;BME280;63878;55.624;37.304;2022-10-18T00:52:58;99547.72;;;7.64;81.04
74913;BME280;63878;55.624;37.304;2022-10-18T00:55:27;99540.03;;;7.61;80.09
74913;BME280;63878;55.624;37.304;2022-10-18T00:57:54;99530.97;;;7.51;80.46
74913;BME280;63878;55.624;37.304;2022-10-18T01:00:20;99534.50;;;7.50;80.94
74913;BME280;63878;55.624;37.304;2022-10-18T01:02:46;99530.06;;;7.52;80.37
74913;BME280;63878;55.624;37.304;2022-10-18T01:05:14;99520.41;;;7.54;80.16
74913;BME280;63878;55.624;37.304;2022-10-18T01:08:02;99517.78;;;7.54;80.01
74913;BME280;63878;55.624;37.304;2022-10-18T01:18:43;99501.41;;;7.52;80.13
74913;BME280;63878;55.624;37.304;2022-10-18T01:26:43;99506.91;;;7.46;80.38
74913;BME280;63878;55.624;37.304;2022-10-18T01:32:31;99506.22;;;7.43;80.21
74913;BME280;63878;55.624;37.304;2022-10-18T01:35:03;99496.47;;;7.46;79.95
74913;BME280;63878;55.624;37.304;2022-10-18T01:37:33;99496.66;;;7.43;80.89
74913;BME280;63878;55.624;37.304;2022-10-18T01:40:02;99499.09;;;7.46;80.60
74913;BME280;63878;55.624;37.304;2022-10-18T01:42:29;99492.19;;;7.45;80.65
74913;BME280;63878;55.624;37.304;2022-10-18T01:44:57;99488.88;;;7.42;80.94
74913;BME280;63878;55.624;37.304;2022-10-18T01:47:24;99484.38;;;7.45;79.66
74913;BME280;63878;55.624;37.304;2022-10-18T01:49:58;99471.94;;;7.33;80.96
74913;BME280;63878;55.624;37.304;2022-10-18T01:52:25;99474.97;;;7.43;79.91
74913;BME280;63878;55.624;37.304;2022-10-18T01:54:51;99478.16;;;7.30;81.17
74913;BME280;63878;55.624;37.304;2022-10-18T02:03:02;99485.31;;;7.44;80.21
74913;BME280;63878;55.624;37.304;2022-10-18T02:05:45;99474.03;;;7.44;80.22
74913;BME280;63878;55.624;37.304;2022-10-18T02:08:36;99473.34;;;7.40;80.51
74913;BME280;63878;55.624;37.304;2022-10-18T02:11:05;99468.34;;;7.35;80.36
74913;BME280;63878;55.624;37.304;2022-10-18T02:13:38;99461.44;;;7.34;80.10
74913;BME280;63878;55.624;37.304;2022-10-18T02:16:18;99459.22;;;7.27;80.11
74913;BME280;63878;55.624;37.304;2022-10-18T02:18:49;99460.59;;;7.34;79.83
74913;BME280;63878;55.624;37.304;2022-10-18T02:21:18;99453.63;;;7.34;80.66
74913;BME280;63878;55.624;37.304;2022-10-18T02:23:46;99454.94;;;7.26;80.30
74913;BME280;63878;55.624;37.304;2022-10-18T02:26:13;99443.59;;;7.27;80.89
74913;BME280;63878;55.624;37.304;2022-10-18T02:28:40;99441.84;;;7.27;80.67
74913;BME280;63878;55.624;37.304;2022-10-18T02:31:18;99435.34;;;7.36;80.68
74913;BME280;63878;55.624;37.304;2022-10-18T02:36:21;99429.59;;;7.29;80.44
74913;BME280;63878;55.624;37.304;2022-10-18T02:38:52;99430.91;;;7.38;79.62
74913;BME280;63878;55.624;37.304;2022-10-18T02:41:24;99431.03;;;7.35;79.90
74913;BME280;63878;55.624;37.304;2022-10-18T02:43:50;99422.31;;;7.19;81.08
74913;BME280;63878;55.624;37.304;2022-10-18T02:46:16;99420.31;;;7.24;80.70
74913;BME280;63878;55.624;37.304;2022-10-18T02:48:42;99418.16;;;7.32;80.74
74913;BME280;63878;55.624;37.304;2022-10-18T02:51:08;99421.78;;;7.29;79.86
74913;BME280;63878;55.624;37.304;2022-10-18T02:53:34;99410.34;;;7.32;79.75
74913;BME280;63878;55.624;37.304;2022-10-18T02:55:59;99413.13;;;7.29;80.45
74913;BME280;63878;55.624;37.304;2022-10-18T02:58:25;99420.41;;;7.22;80.57
74913;BME280;63878;55.624;37.304;2022-10-18T03:00:51;99408.66;;;7.14;80.41
74913;BME280;63878;55.624;37.304;2022-10-18T03:03:16;99402.41;;;7.18;80.79
74913;BME280;63878;55.624;37.304;2022-10-18T03:05:42;99393.13;;;7.12;80.72
74913;BME280;63878;55.624;37.304;2022-10-18T03:08:08;99394.19;;;7.25;80.24
74913;BME280;63878;55.624;37.304;2022-10-18T03:10:33;99387.22;;;7.26;80.31
74913;BME280;63878;55.624;37.304;2022-10-18T03:12:59;99379.56;;;7.23;80.11
74913;BME280;63878;55.624;37.304;2022-10-18T03:15:25;99377.81;;;7.23;80.14
74913;BME280;63878;55.624;37.304;2022-10-18T03:17:50;99375.13;;;7.25;79.70
74913;BME280;63878;55.624;37.304;2022-10-18T03:20:16;99365.63;;;7.24;80.84
74913;BME280;63878;55.624;37.304;2022-10-18T03:22:42;99357.91;;;7.22;80.79
74913;BME280;63878;55.624;37.304;2022-10-18T03:25:08;99363.88;;;7.24;79.43
74913;BME280;63878;55.624;37.304;2022-10-18T03:27:33;99363.78;;;7.26;80.13
74913;BME280;63878;55.624;37.304;2022-10-18T03:29:59;99353.97;;;7.31;80.08
74913;BME280;63878;55.624;37.304;2022-10-18T03:32:25;99348.69;;;7.15;79.83
74913;BME280;63878;55.624;37.304;2022-10-18T03:34:51;99338.13;;;7.18;79.92
74913;BME280;63878;55.624;37.304;2022-10-18T03:37:16;99336.66;;;7.13;80.69
74913;BME280;63878;55.624;37.304;2022-10-18T03:39:42;99323.88;;;7.08;80.38
74913;BME280;63878;55.624;37.304;2022-10-18T03:42:07;99330.31;;;7.01;80.61
74913;BME280;63878;55.624;37.304;2022-10-18T03:44:33;99318.66;;;7.08;80.73
74913;BME280;63878;55.624;37.304;2022-10-18T03:46:58;99320.72;;;7.19;80.02
74913;BME280;63878;55.624;37.304;2022-10-18T03:49:24;99309.59;;;7.32;79.15
74913;BME280;63878;55.624;37.304;2022-10-18T03:51:50;99309.91;;;7.26;80.00
74913;BME280;63878;55.624;37.304;2022-10-18T03:54:15;99303.88;;;7.26;79.03
74913;BME280;63878;55.624;37.304;2022-10-18T03:56:41;99310.22;;;7.37;79.33
74913;BME280;63878;55.624;37.304;2022-10-18T03:59:07;99309.53;;;7.34;79.74
74913;BME280;63878;55.624;37.304;2022-10-18T04:01:33;99307.19;;;7.12;80.14
74913;BME280;63878;55.624;37.304;2022-10-18T04:03:58;99309.97;;;7.09;80.60
74913;BME280;63878;55.624;37.304;2022-10-18T04:06:24;99303.22;;;7.05;80.00
74913;BME280;63878;55.624;37.304;2022-10-18T04:08:50;99289.72;;;7.14;79.88
74913;BME280;63878;55.624;37.304;2022-10-18T04:11:15;99291.34;;;7.17;79.60
74913;BME280;63878;55.624;37.304;2022-10-18T04:13:41;99297.59;;;7.13;80.08
74913;BME280;63878;55.624;37.304;2022-10-18T04:16:07;99287.94;;;7.15;79.58
74913;BME280;63878;55.624;37.304;2022-10-18T04:18:33;99278.31;;;7.17;79.81
74913;BME280;63878;55.624;37.304;2022-10-18T04:20:58;99271.03;;;7.23;78.95
74913;BME280;63878;55.624;37.304;2022-10-18T04:23:24;99275.81;;;7.31;78.84
74913;BME280;63878;55.624;37.304;2022-10-18T04:25:50;99273.03;;;7.18;80.31
74913;BME280;63878;55.624;37.304;2022-10-18T04:28:16;99269.00;;;7.28;79.94
74913;BME280;63878;55.624;37.304;2022-10-18T04:30:42;99269.16;;;7.25;79.60
74913;BME280;63878;55.624;37.304;2022-10-18T04:33:08;99273.78;;;7.53;78.76
74913;BME280;63878;55.624;37.304;2022-10-18T04:35:34;99269.16;;;7.43;79.00
74913;BME280;63878;55.624;37.304;2022-10-18T04:38:00;99267.31;;;7.27;79.64
74913;BME280;63878;55.624;37.304;2022-10-18T04:40:26;99260.03;;;7.34;78.92
74913;BME280;63878;55.624;37.304;2022-10-18T04:42:52;99256.84;;;7.29;79.68
74913;BME280;63878;55.624;37.304;2022-10-18T04:45:19;99252.72;;;7.41;78.90
74913;BME280;63878;55.624;37.304;2022-10-18T04:47:45;99249.81;;;7.47;78.46
74913;BME280;63878;55.624;37.304;2022-10-18T04:50:11;99240.31;;;7.61;78.28
74913;BME280;63878;55.624;37.304;2022-10-18T04:52:38;99233.44;;;7.60;79.00
74913;BME280;63878;55.624;37.304;2022-10-18T04:55:04;99217.78;;;7.60;79.01
74913;BME280;63878;55.624;37.304;2022-10-18T04:57:31;99224.78;;;7.60;78.20
74913;BME280;63878;55.624;37.304;2022-10-18T04:59:56;99219.63;;;7.74;77.76
74913;BME280;63878;55.624;37.304;2022-10-18T05:02:22;99220.00;;;7.84;78.33
74913;BME280;63878;55.624;37.304;2022-10-18T05:04:48;99213.31;;;7.94;77.90
74913;BME280;63878;55.624;37.304;2022-10-18T05:07:13;99214.78;;;7.84;77.21
74913;BME280;63878;55.624;37.304;2022-10-18T05:09:39;99216.81;;;7.63;79.02
74913;BME280;63878;55.624;37.304;2022-10-18T05:12:05;99221.09;;;7.64;78.84
74913;BME280;63878;55.624;37.304;2022-10-18T05:14:30;99231.00;;;7.57;79.09
74913;BME280;63878;55.624;37.304;2022-10-18T05:16:56;99230.16;;;7.57;79.19
74913;BME280;63878;55.624;37.304;2022-10-18T05:19:21;99248.47;;;7.55;79.04
74913;BME280;63878;55.624;37.304;2022-10-18T05:21:47;99248.22;;;7.60;79.66
74913;BME280;63878;55.624;37.304;2022-10-18T05:24:12;99240.75;;;7.70;79.12
74913;BME280;63878;55.624;37.304;2022-10-18T05:26:37;99245.63;;;7.60;80.13
74913;BME280;63878;55.624;37.304;2022-10-18T05:29:03;99232.09;;;7.69;79.65
74913;BME280;63878;55.624;37.304;2022-10-18T05:31:28;99234.19;;;7.78;79.55
74913;BME280;63878;55.624;37.304;2022-10-18T05:33:54;99237.31;;;7.85;79.30
74913;BME280;63878;55.624;37.304;2022-10-18T05:36:20;99228.81;;;7.81;79.41
74913;BME280;63878;55.624;37.304;2022-10-18T05:38:45;99231.59;;;7.78;78.98
74913;BME280;63878;55.624;37.304;2022-10-18T05:41:11;99223.53;;;7.83;79.09
74913;BME280;63878;55.624;37.304;2022-10-18T05:43:38;99224.28;;;7.85;79.28
74913;BME280;63878;55.624;37.304;2022-10-18T05:46:04;99222.59;;;7.84;79.27
74913;BME280;63878;55.624;37.304;2022-10-18T05:48:30;99215.44;;;7.87;78.76
74913;BME280;63878;55.624;37.304;2022-10-18T05:50:59;99210.22;;;7.87;79.03
74913;BME280;63878;55.624;37.304;2022-10-18T05:53:25;99212.28;;;7.82;79.58
74913;BME280;63878;55.624;37.304;2022-10-18T05:55:50;99204.16;;;7.87;79.56
74913;BME280;63878;55.624;37.304;2022-10-18T05:58:16;99201.34;;;7.76;79.81
74913;BME280;63878;55.624;37.304;2022-10-18T06:00:41;99195.59;;;7.85;79.53
74913;BME280;63878;55.624;37.304;2022-10-18T06:03:07;99188.88;;;7.97;79.76
74913;BME280;63878;55.624;37.304;2022-10-18T06:05:32;99183.66;;;7.81;79.77
74913;BME280;63878;55.624;37.304;2022-10-18T06:07:58;99175.50;;;7.87;79.34
74913;BME280;63878;55.624;37.304;2022-10-18T06:10:24;99178.00;;;7.88;79.83
74913;BME280;63878;55.624;37.304;2022-10-18T06:12:49;99166.94;;;7.85;80.20
74913;BME280;63878;55.624;37.304;2022-10-18T06:15:15;99172.88;;;7.87;79.89
74913;BME280;63878;55.624;37.304;2022-10-18T06:17:41;99179.38;;;7.80;80.20
74913;BME280;63878;55.624;37.304;2022-10-18T06:20:07;99163.03;;;7.92;80.11
74913;BME280;63878;55.624;37.304;2022-10-18T06:22:32;99169.28;;;7.89;80.14
74913;BME280;63878;55.624;37.304;2022-10-18T06:24:58;99134.06;;;7.67;80.62
74913;BME280;63878;55.624;37.304;2022-10-18T06:27:24;99149.81;;;7.95;80.34
74913;BME280;63878;55.624;37.304;2022-10-18T06:29:49;99133.28;;;7.96;79.89
74913;BME280;63878;55.624;37.304;2022-10-18T06:32:14;99119.44;;;8.10;79.67
74913;BME280;63878;55.624;37.304;2022-10-18T06:34:40;99076.41;;;7.87;81.06
74913;BME280;63878;55.624;37.304;2022-10-18T06:37:05;99077.88;;;8.07;80.28
74913;BME280;63878;55.624;37.304;2022-10-18T06:39:31;99076.78;;;8.11;80.28
74913;BME280;63878;55.624;37.304;2022-10-18T06:41:56;99052.19;;;8.15;79.93
74913;BME280;63878;55.624;37.304;2022-10-18T06:44:22;99023.47;;;8.15;80.18
74913;BME280;63878;55.624;37.304;2022-10-18T06:46:48;99019.09;;;8.15;80.50
74913;BME280;63878;55.624;37.304;2022-10-18T06:49:14;99023.66;;;7.98;81.18
74913;BME280;63878;55.624;37.304;2022-10-18T06:51:41;99029.72;;;7.98;81.14
74913;BME280;63878;55.624;37.304;2022-10-18T06:54:07;99027.38;;;7.93;81.91
74913;BME280;63878;55.624;37.304;2022-10-18T06:56:33;99009.78;;;7.97;81.21
74913;BME280;63878;55.624;37.304;2022-10-18T06:58:59;98993.47;;;7.93;81.63
74913;BME280;63878;55.624;37.304;2022-10-18T07:01:25;98985.66;;;8.08;81.29
74913;BME280;63878;55.624;37.304;2022-10-18T07:03:51;98986.44;;;8.10;82.12
74913;BME280;63878;55.624;37.304;2022-10-18T07:06:18;98993.41;;;8.09;81.37
74913;BME280;63878;55.624;37.304;2022-10-18T07:08:46;98939.41;;;7.97;82.61
74913;BME280;63878;55.624;37.304;2022-10-18T07:11:24;98943.41;;;8.17;81.19
74913;BME280;63878;55.624;37.304;2022-10-18T07:13:50;98944.19;;;7.89;81.81
74913;BME280;63878;55.624;37.304;2022-10-18T07:16:17;98926.06;;;8.02;81.72
74913;BME280;63878;55.624;37.304;2022-10-18T07:18:48;98913.38;;;7.96;82.09
74913;BME280;63878;55.624;37.304;2022-10-18T07:21:16;98911.44;;;7.85;82.30
74913;BME280;63878;55.624;37.304;2022-10-18T07:23:43;98900.56;;;7.92;81.92
74913;BME280;63878;55.624;37.304;2022-10-18T07:28:37;98866.00;;;8.03;82.09
74913;BME280;63878;55.624;37.304;2022-10-18T07:31:04;98854.66;;;8.04;81.98
74913;BME280;63878;55.624;37.304;2022-10-18T07:33:30;98845.69;;;8.23;80.93
74913;BME280;63878;55.624;37.304;2022-10-18T07:36:00;98829.13;;;8.09;81.84
74913;BME280;63878;55.624;37.304;2022-10-18T07:38:25;98808.38;;;7.93;82.53
74913;BME280;63878;55.624;37.304;2022-10-18T07:40:55;98804.81;;;7.95;81.45
74913;BME280;63878;55.624;37.304;2022-10-18T07:43:21;98795.22;;;7.95;82.08
74913;BME280;63878;55.624;37.304;2022-10-18T07:45:54;98795.53;;;7.90;83.57
74913;BME280;63878;55.624;37.304;2022-10-18T07:48:21;98786.56;;;7.95;83.03
74913;BME280;63878;55.624;37.304;2022-10-18T07:50:47;98771.09;;;8.06;82.87
74913;BME280;63878;55.624;37.304;2022-10-18T07:53:12;98760.66;;;8.06;82.43
74913;BME280;63878;55.624;37.304;2022-10-18T07:55:38;98740.63;;;8.06;82.25
74913;BME280;63878;55.624;37.304;2022-10-18T07:58:04;98728.44;;;8.07;81.79
74913;BME280;63878;55.624;37.304;2022-10-18T08:00:29;98709.16;;;8.09;82.08
74913;BME280;63878;55.624;37.304;2022-10-18T08:02:56;98683.16;;;8.08;81.87
74913;BME280;63878;55.624;37.304;2022-10-18T08:05:22;98656.59;;;7.76;82.73
74913;BME280;63878;55.624;37.304;2022-10-18T08:07:48;98682.66;;;7.76;84.79
74913;BME280;63878;55.624;37.304;2022-10-18T08:10:14;98680.56;;;7.81;84.54
74913;BME280;63878;55.624;37.304;2022-10-18T08:12:39;98668.81;;;7.88;84.68
74913;BME280;63878;55.624;37.304;2022-10-18T08:15:05;98663.53;;;8.02;83.71
74913;BME280;63878;55.624;37.304;2022-10-18T08:17:30;98656.56;;;8.03;83.57
74913;BME280;63878;55.624;37.304;2022-10-18T08:19:56;98606.59;;;8.09;83.30
74913;BME280;63878;55.624;37.304;2022-10-18T08:22:21;98571.25;;;8.05;83.13
74913;BME280;63878;55.624;37.304;2022-10-18T08:24:47;98553.75;;;7.67;85.38
74913;BME280;63878;55.624;37.304;2022-10-18T08:27:13;98521.22;;;7.60;86.49
74913;BME280;63878;55.624;37.304;2022-10-18T08:29:39;98523.47;;;7.91;84.99
74913;BME280;63878;55.624;37.304;2022-10-18T08:32:04;98511.38;;;7.78;85.90
74913;BME280;63878;55.624;37.304;2022-10-18T08:34:30;98497.91;;;7.71;85.86
74913;BME280;63878;55.624;37.304;2022-10-18T08:36:55;98481.94;;;7.63;86.24
74913;BME280;63878;55.624;37.304;2022-10-18T08:39:21;98466.53;;;7.73;86.02
74913;BME280;63878;55.624;37.304;2022-10-18T08:44:31;98427.94;;;7.65;86.15
74913;BME280;63878;55.624;37.304;2022-10-18T08:47:09;98409.31;;;7.71;86.77
74913;BME280;63878;55.624;37.304;2022-10-18T08:49:40;98428.25;;;7.60;87.04
74913;BME280;63878;55.624;37.304;2022-10-18T08:55:25;98397.19;;;7.96;86.01
74913;BME280;63878;55.624;37.304;2022-10-18T08:57:52;98411.56;;;8.01;85.55
74913;BME280;63878;55.624;37.304;2022-10-18T09:00:23;98429.50;;;8.18;85.36
74913;BME280;63878;55.624;37.304;2022-10-18T09:05:54;98441.31;;;8.37;84.12
74913;BME280;63878;55.624;37.304;2022-10-18T09:08:40;98437.00;;;8.36;84.85
74913;BME280;63878;55.624;37.304;2022-10-18T09:23:11;98382.09;;;8.74;84.70
74913;BME280;63878;55.624;37.304;2022-10-18T09:25:58;98385.84;;;8.83;84.64
74913;BME280;63878;55.624;37.304;2022-10-18T09:28:14;98371.00;;;8.83;84.50
74913;BME280;63878;55.624;37.304;2022-10-18T09:31:50;98351.81;;;8.95;84.05
74913;BME280;63878;55.624;37.304;2022-10-18T09:34:10;98352.81;;;9.06;84.39
74913;BME280;63878;55.624;37.304;2022-10-18T09:36:38;98351.94;;;8.94;84.42
74913;BME280;63878;55.624;37.304;2022-10-18T09:39:11;98337.59;;;8.99;84.95
74913;BME280;63878;55.624;37.304;2022-10-18T09:41:46;98356.44;;;8.92;86.09
74913;BME280;63878;55.624;37.304;2022-10-18T09:44:29;98364.47;;;8.89;86.46
74913;BME280;63878;55.624;37.304;2022-10-18T09:47:09;98352.34;;;8.77;88.30
74913;BME280;63878;55.624;37.304;2022-10-18T09:49:44;98337.22;;;8.69;88.68
74913;BME280;63878;55.624;37.304;2022-10-18T09:52:47;98333.72;;;8.81;89.71
74913;BME280;63878;55.624;37.304;2022-10-18T09:55:17;98317.59;;;8.87;90.38
74913;BME280;63878;55.624;37.304;2022-10-18T09:57:48;98311.22;;;8.91;90.17
74913;BME280;63878;55.624;37.304;2022-10-18T10:00:20;98323.69;;;8.99;90.46
74913;BME280;63878;55.624;37.304;2022-10-18T10:02:46;98316.00;;;8.97;90.85
74913;BME280;63878;55.624;37.304;2022-10-18T10:05:13;98305.53;;;8.97;90.96
74913;BME280;63878;55.624;37.304;2022-10-18T10:07:44;98308.03;;;8.99;91.53
74913;BME280;63878;55.624;37.304;2022-10-18T10:10:24;98309.56;;;9.01;92.18
74913;BME280;63878;55.624;37.304;2022-10-18T10:13:23;98297.84;;;9.07;92.34
74913;BME280;63878;55.624;37.304;2022-10-18T10:15:55;98300.81;;;9.14;92.20
74913;BME280;63878;55.624;37.304;2022-10-18T10:18:23;98299.53;;;9.19;92.73
74913;BME280;63878;55.624;37.304;2022-10-18T10:20:52;98288.13;;;9.20;92.93
74913;BME280;63878;55.624;37.304;2022-10-18T10:26:23;98295.28;;;9.30;93.38
74913;BME280;63878;55.624;37.304;2022-10-18T10:28:49;98297.66;;;9.33;93.10
74913;BME280;63878;55.624;37.304;2022-10-18T10:31:29;98285.31;;;9.35;94.09
74913;BME280;63878;55.624;37.304;2022-10-18T10:36:50;98300.38;;;9.42;95.12
74913;BME280;63878;55.624;37.304;2022-10-18T10:39:17;98282.00;;;9.44;95.41
74913;BME280;63878;55.624;37.304;2022-10-18T10:41:47;98271.09;;;9.50;96.66
74913;BME280;63878;55.624;37.304;2022-10-18T10:44:17;98278.31;;;9.58;97.15
74913;BME280;63878;55.624;37.304;2022-10-18T10:46:43;98278.19;;;9.59;97.19
74913;BME280;63878;55.624;37.304;2022-10-18T10:49:42;98280.34;;;9.65;99.87
74913;BME280;63878;55.624;37.304;2022-10-18T10:52:18;98278.44;;;9.67;100.00
74913;BME280;63878;55.624;37.304;2022-10-18T10:54:45;98280.44;;;9.75;100.00
74913;BME280;63878;55.624;37.304;2022-10-18T10:59:43;98277.22;;;9.82;100.00
74913;BME280;63878;55.624;37.304;2022-10-18T11:04:41;98260.69;;;9.93;100.00
74913;BME280;63878;55.624;37.304;2022-10-18T11:12:35;98252.84;;;10.04;100.00
74913;BME280;63878;55.624;37.304;2022-10-18T11:15:25;98248.78;;;10.12;100.00
74913;BME280;63878;55.624;37.304;2022-10-18T11:18:03;98265.19;;;10.14;100.00
74913;BME280;63878;55.624;37.304;2022-10-18T11:20:39;98256.38;;;10.15;100.00
74913;BME280;63878;55.624;37.304;2022-10-18T11:23:13;98253.13;;;10.22;100.00
74913;BME280;63878;55.624;37.304;2022-10-18T11:25:55;98248.38;;;10.16;100.00
74913;BME280;63878;55.624;37.304;2022-10-18T11:39:06;98256.28;;;10.48;100.00
74913;BME280;63878;55.624;37.304;2022-10-18T11:41:38;98258.53;;;10.53;100.00
74913;BME280;63878;55.624;37.304;2022-10-18T11:44:27;98252.34;;;10.54;100.00
74913;BME280;63878;55.624;37.304;2022-10-18T11:47:16;98247.81;;;10.56;100.00
74913;BME280;63878;55.624;37.304;2022-10-18T12:04:09;98254.34;;;10.82;100.00
74913;BME280;63878;55.624;37.304;2022-10-18T12:06:38;98244.84;;;10.81;100.00
74913;BME280;63878;55.624;37.304;2022-10-18T12:09:27;98247.09;;;10.86;100.00
74913;BME280;63878;55.624;37.304;2022-10-18T12:12:01;98249.88;;;10.94;100.00
74913;BME280;63878;55.624;37.304;2022-10-18T12:14:34;98247.28;;;10.94;100.00
74913;BME280;63878;55.624;37.304;2022-10-18T12:17:04;98249.66;;;10.97;100.00
74913;BME280;63878;55.624;37.304;2022-10-18T12:19:33;98251.16;;;11.00;100.00
74913;BME280;63878;55.624;37.304;2022-10-18T12:22:21;98256.03;;;11.04;100.00
74913;BME280;63878;55.624;37.304;2022-10-18T12:24:48;98249.69;;;11.07;100.00
74913;BME280;63878;55.624;37.304;2022-10-18T12:27:15;98245.16;;;11.09;100.00
74913;BME280;63878;55.624;37.304;2022-10-18T12:29:51;98246.56;;;11.13;100.00
74913;BME280;63878;55.624;37.304;2022-10-18T12:32:24;98248.34;;;11.12;100.00
74913;BME280;63878;55.624;37.304;2022-10-18T12:34:56;98248.53;;;11.21;100.00
74913;BME280;63878;55.624;37.304;2022-10-18T12:40:16;98246.34;;;11.26;100.00
74913;BME280;63878;55.624;37.304;2022-10-18T12:42:47;98245.00;;;11.31;100.00
74913;BME280;63878;55.624;37.304;2022-10-18T12:45:32;98250.25;;;11.31;100.00
74913;BME280;63878;55.624;37.304;2022-10-18T12:48:01;98254.41;;;11.34;100.00
74913;BME280;63878;55.624;37.304;2022-10-18T12:50:36;98253.88;;;11.40;100.00
74913;BME280;63878;55.624;37.304;2022-10-18T12:53:06;98251.13;;;11.41;100.00
74913;BME280;63878;55.624;37.304;2022-10-18T12:55:44;98248.13;;;11.46;100.00
74913;BME280;63878;55.624;37.304;2022-10-18T13:16:50;98254.28;;;11.76;100.00
74913;BME280;63878;55.624;37.304;2022-10-18T13:34:49;98262.38;;;11.84;100.00
74913;BME280;63878;55.624;37.304;2022-10-18T13:39:41;98252.03;;;11.92;99.64
74913;BME280;63878;55.624;37.304;2022-10-18T13:42:31;98259.09;;;12.01;99.01
74913;BME280;63878;55.624;37.304;2022-10-18T13:50:52;98254.53;;;11.93;98.84
74913;BME280;63878;55.624;37.304;2022-10-18T13:53:37;98261.72;;;12.01;99.65
74913;BME280;63878;55.624;37.304;2022-10-18T13:56:20;98260.19;;;11.98;98.42
74913;BME280;63878;55.624;37.304;2022-10-18T14:06:49;98305.50;;;12.10;90.81
74913;BME280;63878;55.624;37.304;2022-10-18T14:09:24;98317.81;;;12.10;89.63
74913;BME280;63878;55.624;37.304;2022-10-18T14:12:21;98312.75;;;12.18;90.02
74913;BME280;63878;55.624;37.304;2022-10-18T14:17:45;98313.19;;;12.42;88.07
74913;BME280;63878;55.624;37.304;2022-10-18T14:23:15;98313.69;;;12.17;87.17
74913;BME280;63878;55.624;37.304;2022-10-18T14:25:42;98307.22;;;12.21;87.20
74913;BME280;63878;55.624;37.304;2022-10-18T14:30:55;98323.72;;;12.02;85.63
74913;BME280;63878;55.624;37.304;2022-10-18T14:33:37;98324.38;;;11.94;84.36
74913;BME280;63878;55.624;37.304;2022-10-18T14:36:22;98327.44;;;11.99;83.88
74913;BME280;63878;55.624;37.304;2022-10-18T14:41:23;98320.19;;;11.82;82.87
74913;BME280;63878;55.624;37.304;2022-10-18T14:43:50;98336.19;;;11.79;82.62
74913;BME280;63878;55.624;37.304;2022-10-18T14:49:00;98350.75;;;11.93;82.38
74913;BME280;63878;55.624;37.304;2022-10-18T14:51:31;98349.66;;;11.95;82.42
74913;BME280;63878;55.624;37.304;2022-10-18T14:53:57;98328.44;;;11.78;81.42
74913;BME280;63878;55.624;37.304;2022-10-18T14:56:26;98337.25;;;11.77;81.34
74913;BME280;63878;55.624;37.304;2022-10-18T14:58:53;98323.13;;;11.68;79.89
74913;BME280;63878;55.624;37.304;2022-10-18T15:01:20;98358.47;;;11.85;79.42
74913;BME280;63878;55.624;37.304;2022-10-18T15:03:47;98354.53;;;11.79;78.94
74913;BME280;63878;55.624;37.304;2022-10-18T15:06:18;98362.41;;;11.79;78.84
74913;BME280;63878;55.624;37.304;2022-10-18T15:08:46;98367.03;;;11.66;78.29
74913;BME280;63878;55.624;37.304;2022-10-18T15:11:14;98365.03;;;11.79;79.48
74913;BME280;63878;55.624;37.304;2022-10-18T15:14:00;98360.25;;;11.84;78.51
74913;BME280;63878;55.624;37.304;2022-10-18T15:16:29;98361.59;;;11.79;78.08
74913;BME280;63878;55.624;37.304;2022-10-18T15:19:01;98376.28;;;11.70;77.06
74913;BME280;63878;55.624;37.304;2022-10-18T15:21:26;98387.75;;;11.69;76.77
74913;BME280;63878;55.624;37.304;2022-10-18T15:23:53;98395.75;;;11.67;75.67
74913;BME280;63878;55.624;37.304;2022-10-18T15:26:21;98403.75;;;11.66;77.33
74913;BME280;63878;55.624;37.304;2022-10-18T15:28:50;98388.75;;;11.57;76.77
74913;BME280;63878;55.624;37.304;2022-10-18T15:31:28;98413.09;;;11.59;75.91
74913;BME280;63878;55.624;37.304;2022-10-18T15:34:08;98413.31;;;11.56;77.53
74913;BME280;63878;55.624;37.304;2022-10-18T15:36:35;98406.22;;;11.67;76.76
74913;BME280;63878;55.624;37.304;2022-10-18T15:39:16;98400.53;;;11.62;75.96
74913;BME280;63878;55.624;37.304;2022-10-18T15:44:28;98396.03;;;11.43;76.93
74913;BME280;63878;55.624;37.304;2022-10-18T15:47:08;98422.25;;;11.43;76.73
74913;BME280;63878;55.624;37.304;2022-10-18T15:54:34;98414.63;;;11.61;75.32